Flight Track Log - Related Links

Times and Time Zones

All times are in EST time to prevent confusion due to time zone crossing. See the JBU524 flight status page for this flight to view local times or setup timezone preferences in your user account.

Time Position Orientation Groundspeed Altitude Reporting Facility
EST Latitude Longitude Course Direction KTS MPH feet Rate Location/Type
Wed 11:57:37 PM 33.9460 -118.4447 265° West 178 205 1,100  Level FlightAware ADS-B
Wed 11:57:52 PM 33.9449 -118.4619 266° West 179 206 1,600 1,143 Climbing FlightAware ADS-B
Wed 11:58:40 PM 33.9418 -118.5175 266° West 238 274 2,300 1,500 Climbing FlightAware ADS-B
Wed 11:59:20 PM 33.9385 -118.5723 254° West 267 307 3,800 2,900 Climbing FlightAware ADS-B
Wed 11:59:40 PM 33.9225 -118.6010 218° Southwest 245 282 5,200 3,046 Climbing FlightAware ADS-B
Thu 12:00:25 AM 33.8733 -118.5972 139° Southeast 274 315 7,100 2,400 Climbing FlightAware ADS-B
Thu 12:00:45 AM 33.8628 -118.5745 99° East 296 341 7,800 2,121 Climbing FlightAware ADS-B
Thu 12:02:04 AM 33.9172 -118.4564 53° Northeast 340 391 10,600 2,256 Climbing FlightAware ADS-B
Thu 12:02:50 AM 33.9591 -118.3868 56° Northeast 335 386 12,500 2,100 Climbing FlightAware ADS-B
Thu 12:03:24 AM 33.9893 -118.3334 56° Northeast 358 412 13,400 1,217 Climbing FlightAware ADS-B
Thu 12:03:59 AM 34.0285 -118.2643 56° Northeast 394 453 13,900 1,417 Climbing FlightAware ADS-B
Thu 12:07:38 AM 34.2697 -117.8362 56° Northeast 457 526 19,400 1,558 Climbing FlightAware ADS-B
Thu 12:08:17 AM 34.3171 -117.7515 56° Northeast 458 527 20,600 1,800 Climbing FlightAware ADS-B
Thu 12:08:48 AM 34.3540 -117.6854 56° Northeast 460 529 21,500 1,583 Climbing FlightAware ADS-B
Thu 12:09:29 AM 34.4020 -117.5993 56° Northeast 457 526 22,500 1,437 Climbing FlightAware ADS-B
Thu 12:09:59 AM 34.4382 -117.5343 56° Northeast 458 527 23,200 1,000 Climbing FlightAware ADS-B
Thu 12:10:29 AM 34.4734 -117.4709 56° Northeast 471 542 23,500 800 Climbing FlightAware ADS-B
Thu 12:10:59 AM 34.5087 -117.4074 56° Northeast 477 549 24,000 1,100 Climbing FlightAware ADS-B
Thu 12:11:29 AM 34.5467 -117.3384 56° Northeast 480 552 24,600 1,147 Climbing FlightAware ADS-B
Thu 12:12:07 AM 34.5944 -117.2519 56° Northeast 483 556 25,300 947 Climbing FlightAware ADS-B
Thu 12:12:45 AM 34.6480 -117.1547 56° Northeast 491 565 25,800 575 Climbing FlightAware ADS-B
Thu 12:13:20 AM 34.6878 -117.0821 56° Northeast 498 573 26,000 783 Climbing FlightAware ADS-B
Thu 12:13:54 AM 34.7318 -117.0019 56° Northeast 499 574 26,700 985 Climbing FlightAware ADS-B
Thu 12:14:27 AM 34.7783 -116.9168 57° Northeast 505 581 27,100 583 Climbing FlightAware ADS-B
Thu 12:15:06 AM 34.8203 -116.8398 57° Northeast 512 589 27,400 647 Climbing FlightAware ADS-B
Thu 12:16:09 AM 34.9046 -116.6849 57° Northeast 517 595 28,200 1,053 Climbing FlightAware ADS-B
Thu 12:17:17 AM 34.9472 -116.6082 47° Northeast 499 574 29,700 966 Climbing FlightAware ADS-B
Thu 12:18:07 AM 35.0898 -116.4178 45° Northeast 504 580 30,100 706 Climbing FlightAware ADS-B (EPLL / LCJ)
Thu 12:18:42 AM 35.1486 -116.3457 46° Northeast 501 577 30,700 716 Climbing FlightAware ADS-B (EPLL / LCJ)
Thu 12:19:14 AM 35.2011 -116.2803 46° Northeast 506 582 30,900 882 Climbing FlightAware ADS-B (EPLL / LCJ)
Thu 12:19:50 AM 35.2587 -116.2077 47° Northeast 494 568 31,700 783 Climbing FlightAware ADS-B (EPLL / LCJ)
Thu 12:20:23 AM 35.3129 -116.1397 46° Northeast 508 585 31,800 586 Climbing FlightAware ADS-B (EPLL / LCJ)
Thu 12:22:03 AM 35.4756 -115.9342 46° Northeast 510 587 33,000 434 Climbing FlightAware ADS-B (EPLL / LCJ)
Thu 12:23:09 AM 35.5844 -115.7959 46° Northeast 510 587 33,000  Level FlightAware ADS-B (EPLL / LCJ)
Thu 12:23:41 AM 35.6375 -115.7280 46° Northeast 511 588 33,000  Level FlightAware ADS-B (EPLL / LCJ)
Thu 12:24:14 AM 35.6916 -115.6591 47° Northeast 512 589 33,000 61 Level FlightAware ADS-B (EPLL / LCJ)
Thu 12:25:20 AM 35.8009 -115.5192 46° Northeast 514 592 33,100 62 Climbing FlightAware ADS-B (EPLL / LCJ)
Thu 12:25:51 AM 35.8500 -115.4560 47° Northeast 501 577 33,100  Level FlightAware ADS-B (EPLL / LCJ)
Thu 12:26:24 AM 35.9049 -115.3857 47° Northeast 500 575 33,100 -90 Level FlightAware ADS-B (EPLL / LCJ)
Thu 12:26:58 AM 35.9587 -115.3165 47° Northeast 495 570 33,000 -94 Descending FlightAware ADS-B (EPLL / LCJ)
Thu 12:27:28 AM 36.0057 -115.2526 52° Northeast 502 578 33,000  Level FlightAware ADS-B (EPLL / LCJ)
Thu 12:28:00 AM 36.0509 -115.1771 57° Northeast 503 579 33,000  Level FlightAware ADS-B (EPLL / LCJ)
Thu 12:29:16 AM 36.1337 -114.9827 70° East 514 592 33,000  Level FlightAware ADS-B (EPLL / LCJ)
Thu 12:29:50 AM 36.1626 -114.8890 69° East 512 589 33,000  Level FlightAware ADS-B (EPLL / LCJ)
Thu 12:30:52 AM 36.2156 -114.7181 69° East 508 585 33,000 180 Level FlightAware ADS-B (EPLL / LCJ)
Thu 12:31:30 AM 36.2462 -114.6176 70° East 501 577 33,300 522 Climbing FlightAware ADS-B (EPLL / LCJ)
Thu 12:32:01 AM 36.2723 -114.5326 69° East 502 578 33,600 462 Climbing FlightAware ADS-B (EPLL / LCJ)
Thu 12:32:35 AM 36.3004 -114.4404 69° East 509 586 33,800 545 Climbing FlightAware ADS-B (EPLL / LCJ)
Thu 12:33:07 AM 36.3267 -114.3533 70° East 507 583 34,200 818 Climbing FlightAware ADS-B (EPLL / LCJ)
Thu 12:33:41 AM 36.3545 -114.2606 70° East 503 579 34,700 727 Climbing FlightAware ADS-B (EPLL / LCJ)
Thu 12:34:13 AM 36.3797 -114.1763 71° East 499 574 35,000 273 Climbing FlightAware ADS-B (EPLL / LCJ)
Thu 12:34:47 AM 36.4078 -114.0829 70° East 507 583 35,000  Level FlightAware ADS-B (EPLL / LCJ)
Thu 12:35:21 AM 36.4353 -113.9909 70° East 515 593 35,000  Level FlightAware ADS-B (EPLL / LCJ)
Thu 12:35:54 AM 36.4632 -113.8974 70° East 522 601 35,000  Level FlightAware ADS-B (EPLL / LCJ)
Thu 12:36:28 AM 36.4913 -113.8025 70° East 528 608 35,000  Level FlightAware ADS-B (EPLL / LCJ)
Thu 12:36:59 AM 36.5173 -113.7144 70° East 528 608 35,000  Level FlightAware ADS-B (EPLL / LCJ)
Thu 12:37:35 AM 36.5479 -113.6103 70° East 524 603 35,000  Level FlightAware ADS-B (EPLL / LCJ)
Thu 12:38:08 AM 36.5750 -113.5176 70° East 523 602 35,000  Level FlightAware ADS-B (EPLL / LCJ)
Thu 12:38:41 AM 36.6021 -113.4250 70° East 523 602 35,000  Level FlightAware ADS-B (EPLL / LCJ)
Thu 12:39:14 AM 36.6291 -113.3325 70° East 521 600 35,000  Level FlightAware ADS-B (EPLL / LCJ)
Thu 12:39:47 AM 36.6562 -113.2394 70° East 521 600 35,000  Level FlightAware ADS-B (EPLL / LCJ)
Thu 12:40:20 AM 36.6830 -113.1464 70° East 522 601 35,000  Level FlightAware ADS-B (EPLL / LCJ)
Thu 12:40:53 AM 36.7099 -113.0536 70° East 523 602 35,000  Level FlightAware ADS-B (EPLL / LCJ)
Thu 12:41:26 AM 36.7364 -112.9612 70° East 524 603 35,000  Level FlightAware ADS-B (EPLL / LCJ)
Thu 12:41:59 AM 36.7637 -112.8659 70° East 527 606 35,000  Level FlightAware ADS-B (EPLL / LCJ)
Thu 12:42:32 AM 36.7907 -112.7714 71° East 527 606 35,000 91 Level FlightAware ADS-B (EPLL / LCJ)
Thu 12:43:05 AM 36.8172 -112.6775 71° East 518 596 35,100 90 Climbing FlightAware ADS-B (EPLL / LCJ)
Thu 12:43:39 AM 36.8437 -112.5840 71° East 512 589 35,100  Level FlightAware ADS-B (EPLL / LCJ)
Thu 12:44:11 AM 36.8690 -112.4946 72° East 506 582 35,100 -91 Level FlightAware ADS-B (EPLL / LCJ)
Thu 12:44:45 AM 36.8954 -112.4010 72° East 505 581 35,000 -91 Descending FlightAware ADS-B (EPLL / LCJ)
Thu 12:45:17 AM 36.9204 -112.3116 72° East 505 581 35,000  Level FlightAware ADS-B (EPLL / LCJ)
Thu 12:45:53 AM 36.9480 -112.2130 72° East 508 585 35,000  Level FlightAware ADS-B (EPLL / LCJ)
Thu 12:46:25 AM 36.9729 -112.1239 71° East 512 589 35,000 92 Level FlightAware ADS-B
Thu 12:46:58 AM 36.9982 -112.0329 72° East 509 586 35,100  Climbing FlightAware ADS-B (EPLL / LCJ)
Thu 12:47:31 AM 37.0239 -111.9403 71° East 510 587 35,000 -91 Descending FlightAware ADS-B (EPLL / LCJ)
Thu 12:48:04 AM 37.0497 -111.8470 71° East 510 587 35,000  Level FlightAware ADS-B (EPLL / LCJ)
Thu 12:48:34 AM 37.0717 -111.7668 71° East 510 587 35,000  Level FlightAware ADS-B
Thu 12:49:39 AM 37.1215 -111.5847 71° East 509 586 35,000  Level FlightAware ADS-B
Thu 12:50:39 AM 37.1673 -111.4157 71° East 510 587 35,000 48 Level FlightAware ADS-B
Thu 12:51:45 AM 37.2166 -111.2333 71° East 505 581 35,100  Climbing FlightAware ADS-B
Thu 12:52:46 AM 37.2620 -111.0643 71° East 502 578 35,000 -98 Descending FlightAware ADS-B
Thu 12:53:47 AM 37.3074 -110.8944 72° East 506 582 34,900  Descending FlightAware ADS-B
Thu 12:54:50 AM 37.3537 -110.7191 72° East 505 581 35,000 48 Climbing FlightAware ADS-B
Thu 12:55:51 AM 37.3978 -110.5507 72° East 505 581 35,000  Level FlightAware ADS-B
Thu 12:58:06 AM 37.4957 -110.1752 72° East 499 574 35,000  Level FlightAware ADS-B (KGUC)
Thu 12:58:54 AM 37.5295 -110.0433 72° East 499 574 35,000  Level FlightAware ADS-B
Thu 12:59:27 AM 37.5533 -109.9503 72° East 499 574 35,000  Level FlightAware ADS-B
Thu 12:59:59 AM 37.5747 -109.8667 72° East 500 575 35,000  Level FlightAware ADS-B
Thu 01:00:37 AM 37.6025 -109.7572 72° East 498 573 35,000  Level FlightAware ADS-B
Thu 01:01:10 AM 37.6251 -109.6681 72° East 496 571 35,000  Level FlightAware ADS-B
Thu 01:01:42 AM 37.6464 -109.5838 72° East 494 568 35,000  Level FlightAware ADS-B
Thu 01:02:21 AM 37.6734 -109.4761 73° East 494 568 35,000  Level FlightAware ADS-B
Thu 01:03:02 AM 37.7023 -109.3610 73° East 495 570 35,000  Level FlightAware ADS-B
Thu 01:03:33 AM 37.7236 -109.2759 73° East 495 570 35,000  Level FlightAware ADS-B
Thu 01:04:04 AM 37.7445 -109.1917 73° East 493 567 35,000  Level FlightAware ADS-B
Thu 01:04:34 AM 37.7651 -109.1082 73° East 492 566 35,000  Level FlightAware ADS-B
Thu 01:05:10 AM 37.7880 -109.0150 73° East 488 562 35,000  Level FlightAware ADS-B
Thu 01:05:45 AM 37.8123 -108.9158 73° East 487 560 35,000  Level FlightAware ADS-B (KGUC)
Thu 01:06:16 AM 37.8314 -108.8300 75° East 486 559 35,000  Level FlightAware ADS-B (KGUC)
Thu 01:06:46 AM 37.8482 -108.7483 75° East 485 558 35,000  Level FlightAware ADS-B (KGUC)
Thu 01:07:25 AM 37.8712 -108.6392 75° East 484 557 35,000  Level FlightAware ADS-B (KGUC)
Thu 01:07:56 AM 37.8877 -108.5613 75° East 485 558 35,000  Level FlightAware ADS-B (KGUC)
Thu 01:08:26 AM 37.9059 -108.4749 75° East 484 557 35,000  Level FlightAware ADS-B (KGUC)
Thu 01:08:56 AM 37.9232 -108.3938 75° East 486 559 35,000  Level FlightAware ADS-B (KGUC)
Thu 01:09:26 AM 37.9411 -108.3093 75° East 488 562 35,000  Level FlightAware ADS-B (KGUC)
Thu 01:10:00 AM 37.9600 -108.2180 75° East 488 562 35,000  Level FlightAware ADS-B
Thu 01:10:30 AM 37.9776 -108.1319 76° East 489 563 35,000 100 Level FlightAware ADS-B
Thu 01:11:00 AM 37.9940 -108.0525 75° East 487 560 35,100  Climbing FlightAware ADS-B
Thu 01:11:30 AM 38.0113 -107.9684 75° East 487 560 35,000 -92 Descending FlightAware ADS-B
Thu 01:12:05 AM 38.0316 -107.8703 75° East 486 559 35,000  Level FlightAware ADS-B (KGUC)
Thu 01:12:36 AM 38.0491 -107.7859 75° East 485 558 35,000  Level FlightAware ADS-B (KGUC)
Thu 01:13:06 AM 38.0656 -107.7052 76° East 483 556 35,000  Level FlightAware ADS-B (KGUC)
Thu 01:13:36 AM 38.0826 -107.6214 76° East 484 557 35,000  Level FlightAware ADS-B (KGUC)
Thu 01:14:06 AM 38.0987 -107.5419 76° East 481 554 35,000  Level FlightAware ADS-B (KGUC)
Thu 01:14:36 AM 38.1147 -107.4631 76° East 479 551 35,000  Level FlightAware ADS-B (KGUC)
Thu 01:15:06 AM 38.1324 -107.3746 76° East 477 549 35,000  Level FlightAware ADS-B
Thu 01:15:36 AM 38.1483 -107.2949 76° East 477 549 35,000  Level FlightAware ADS-B (KGUC)
Thu 01:16:06 AM 38.1642 -107.2152 76° East 478 550 35,000  Level FlightAware ADS-B (KGUC)
Thu 01:16:36 AM 38.1807 -107.1319 76° East 477 549 35,000  Level FlightAware ADS-B (KGUC)
Thu 01:17:06 AM 38.1953 -107.0583 76° East 478 550 35,000  Level FlightAware ADS-B (KGUC)
Thu 01:17:36 AM 38.2127 -106.9694 76° East 479 551 35,000  Level FlightAware ADS-B (KGUC)
Thu 01:18:47 AM 38.2505 -106.7764 76° East 479 551 35,000  Level FlightAware ADS-B
Thu 01:20:05 AM 38.2898 -106.5739 76° East 480 552 35,000  Level FlightAware ADS-B (EGNT / NCL)
Thu 01:20:45 AM 38.3126 -106.4552 76° East 481 554 35,000  Level FlightAware ADS-B (EGNT / NCL)
Thu 01:21:20 AM 38.3311 -106.3579 76° East 482 555 35,000  Level FlightAware ADS-B
Thu 01:21:52 AM 38.3474 -106.2721 77° East 482 555 35,000  Level FlightAware ADS-B
Thu 01:22:22 AM 38.3635 -106.1864 77° East 482 555 35,000  Level FlightAware ADS-B
Thu 01:22:52 AM 38.3792 -106.1034 77° East 482 555 35,000  Level FlightAware ADS-B
Thu 01:23:22 AM 38.3944 -106.0234 76° East 485 558 35,000 97 Level FlightAware ADS-B
Thu 01:23:54 AM 38.4116 -105.9320 77° East 483 556 35,100  Climbing FlightAware ADS-B
Thu 01:24:30 AM 38.4291 -105.8374 77° East 485 558 35,000  Descending FlightAware ADS-B (EGNT / NCL)
Thu 01:25:07 AM 38.4392 -105.7823 77° East 483 556 35,100  Climbing FlightAware ADS-B
Thu 01:25:47 AM 38.4694 -105.6192 77° East 484 557 35,000 -82 Descending FlightAware ADS-B (KGUC)
Thu 01:26:20 AM 38.4856 -105.5306 77° East 487 560 35,000  Level FlightAware ADS-B (EGNT / NCL)
Thu 01:27:00 AM 38.5055 -105.4217 77° East 489 563 35,000  Level FlightAware ADS-B (EGNT / NCL)
Thu 01:27:30 AM 38.5222 -105.3308 77° East 493 567 35,000 86 Level FlightAware ADS-B (EGNT / NCL)
Thu 01:28:10 AM 38.5419 -105.2209 77° East 493 567 35,100 86 Climbing FlightAware ADS-B (EGNT / NCL)
Thu 01:28:40 AM 38.5576 -105.1327 77° East 492 566 35,100  Level FlightAware ADS-B (EGNT / NCL)
Thu 01:29:11 AM 38.5731 -105.0460 77° East 490 564 35,100 -88 Level FlightAware ADS-B
Thu 01:29:48 AM 38.5914 -104.9435 77° East 491 565 35,000 -88 Descending FlightAware ADS-B (EGNT / NCL)
Thu 01:30:19 AM 38.6074 -104.8528 77° East 491 565 35,000  Level FlightAware ADS-B (EGNT / NCL)
Thu 01:30:24 AM 38.6098 -104.8396 77° East 490 564 35,000  Level FlightAware ADS-B
Thu 01:30:59 AM 38.6263 -104.7449 77° East 488 562 35,000 92 Level FlightAware ADS-B (EGNT / NCL)
Thu 01:31:29 AM 38.6414 -104.6584 78° East 484 557 35,100  Climbing FlightAware ADS-B (EGNT / NCL)
Thu 01:31:59 AM 38.6533 -104.5900 78° East 484 557 35,000 -115 Descending FlightAware ADS-B
Thu 01:32:21 AM 38.6645 -104.5259 77° East 483 556 35,000  Level FlightAware ADS-B
Thu 01:32:51 AM 38.6812 -104.4283 78° East 480 552 35,000  Level FlightAware ADS-B (EGNT / NCL)
Thu 01:33:22 AM 38.6954 -104.3455 78° East 476 548 35,000  Level FlightAware ADS-B (EGNT / NCL)
Thu 01:34:01 AM 38.7140 -104.2379 78° East 474 545 35,000  Level FlightAware ADS-B (EGNT / NCL)
Thu 01:34:31 AM 38.7280 -104.1568 78° East 474 545 35,000  Level FlightAware ADS-B (EGNT / NCL)
Thu 01:35:12 AM 38.7467 -104.0456 78° East 476 548 35,000  Level FlightAware ADS-B (EGNT / NCL)
Thu 01:35:42 AM 38.7593 -103.9713 78° East 477 549 35,000  Level FlightAware ADS-B
Thu 01:36:21 AM 38.7783 -103.8583 78° East 479 551 35,000  Level FlightAware ADS-B (EGNT / NCL)
Thu 01:36:52 AM 38.7932 -103.7682 78° East 481 554 35,000  Level FlightAware ADS-B (EGNT / NCL)
Thu 01:37:23 AM 38.8081 -103.6789 78° East 485 558 35,000  Level FlightAware ADS-B (EGNT / NCL)
Thu 01:37:37 AM 38.8155 -103.6400 75° East 483 556 35,000  Level FlightAware ADS-B
Thu 01:37:47 AM 38.8194 -103.6223 74° East 482 555 35,000 133 Level FlightAware ADS-B
Thu 01:38:22 AM 38.8478 -103.5201 68° East 480 552 35,100  Climbing FlightAware ADS-B (EGNT / NCL)
Thu 01:38:52 AM 38.8724 -103.4404 68° East 482 555 35,000  Descending FlightAware ADS-B (EGNT / NCL)
Thu 01:39:22 AM 38.8944 -103.3690 69° East 483 556 35,100 100 Climbing FlightAware ADS-B (EGNT / NCL)
Thu 01:39:52 AM 38.9213 -103.2803 69° East 482 555 35,100  Level FlightAware ADS-B (EGNT / NCL)
Thu 01:40:23 AM 38.9459 -103.1992 69° East 480 552 35,100 -87 Level FlightAware ADS-B (EGNT / NCL)
Thu 01:41:01 AM 38.9763 -103.0981 69° East 478 550 35,000 -88 Descending FlightAware ADS-B (EGNT / NCL)
Thu 01:41:31 AM 39.0003 -103.0181 69° East 478 550 35,000  Level FlightAware ADS-B (EGNT / NCL)
Thu 01:42:02 AM 39.0247 -102.9364 69° East 476 548 35,000  Level FlightAware ADS-B (EGNT / NCL)
Thu 01:42:39 AM 39.0510 -102.8478 69° East 476 548 35,000  Level FlightAware ADS-B
Thu 01:43:13 AM 39.0774 -102.7591 69° East 475 547 35,000  Level FlightAware ADS-B (EGNT / NCL)
Thu 01:43:43 AM 39.1026 -102.6742 69° East 474 545 35,000  Level FlightAware ADS-B (EGNT / NCL)
Thu 01:44:22 AM 39.1340 -102.5677 69° East 474 545 35,000  Level FlightAware ADS-B (EGNT / NCL)
Thu 01:45:01 AM 39.1618 -102.4736 69° East 473 544 35,000  Level FlightAware ADS-B
Thu 01:45:33 AM 39.1876 -102.3855 69° East 473 544 35,000  Level FlightAware ADS-B (EGNT / NCL)
Thu 01:46:07 AM 39.2130 -102.2984 70° East 473 544 35,000  Level FlightAware ADS-B (EGNT / NCL)
Thu 01:46:41 AM 39.2381 -102.2124 70° East 474 545 35,000  Level FlightAware ADS-B
Thu 01:47:12 AM 39.2646 -102.1210 70° East 474 545 35,000  Level FlightAware ADS-B (EGNT / NCL)
Thu 01:47:43 AM 39.2841 -102.0537 70° East 475 547 35,000  Level FlightAware ADS-B (EGNT / NCL)
Thu 01:48:13 AM 39.3112 -101.9598 70° East 476 548 35,000  Level FlightAware ADS-B (EGNT / NCL)
Thu 01:48:43 AM 39.3306 -101.8923 70° East 477 549 35,000  Level FlightAware ADS-B (EGNT / NCL)
Thu 01:49:14 AM 39.3538 -101.8115 70° East 477 549 35,000  Level FlightAware ADS-B (EGNT / NCL)
Thu 01:49:45 AM 39.3814 -101.7147 70° East 477 549 35,000  Level FlightAware ADS-B (EGNT / NCL)
Thu 01:50:20 AM 39.4087 -101.6293 67° East 473 544 35,000  Level FlightAware ADS-B
Thu 01:50:53 AM 39.4317 -101.5617 66° East 472 543 35,000  Level FlightAware ADS-B (EGNT / NCL)
Thu 01:51:04 AM 39.4317 -101.5617 67° East 471 542 35,000  Level FlightAware ADS-B (EGNT / NCL)
Thu 01:51:36 AM 39.4774 -101.4265 67° East 471 542 35,000  Level FlightAware ADS-B (EGNT / NCL)
Thu 01:52:11 AM 39.5037 -101.3484 67° East 472 543 35,000  Level FlightAware ADS-B
Thu 01:52:46 AM 39.5382 -101.2452 67° East 473 544 35,000  Level FlightAware ADS-B (EGNT / NCL)
Thu 01:53:38 AM 39.5742 -101.1369 67° East 476 548 35,000  Level FlightAware ADS-B
Thu 01:54:24 AM 39.6194 -101.0008 67° East 475 547 35,000  Level FlightAware ADS-B
Thu 01:55:11 AM 39.6638 -100.8664 68° East 472 543 35,000  Level FlightAware ADS-B (EGNT / NCL)
Thu 01:56:02 AM 39.7025 -100.7483 68° East 474 545 35,000  Level Denver Center
Thu 01:57:03 AM 39.7508 -100.5983 67° East 473 544 35,000  Level Denver Center
Thu 01:58:03 AM 39.8083 -100.4250 67° East 472 543 35,000  Level Denver Center
Thu 01:59:03 AM 39.8567 -100.2758 67° East 471 542 35,000  Level Denver Center
Thu 02:00:04 AM 39.9028 -100.1317 67° East 471 542 35,000  Level Denver Center
Thu 02:01:04 AM 39.9528 -99.9736 68° East 471 542 35,000  Level Denver Center
Thu 02:02:04 AM 40.0025 -99.8158 68° East 471 542 35,000  Level Denver Center
Thu 02:03:05 AM 40.0536 -99.6569 67° East 472 543 35,000  Level Denver Center
Thu 02:04:05 AM 40.1036 -99.4975 68° East 474 545 35,000 50 Level Denver Center
Thu 02:05:06 AM 40.1536 -99.3372 68° East 475 547 35,100  Climbing Denver Center
Thu 02:06:06 AM 40.2022 -99.1797 68° East 474 545 35,000 -56 Descending Denver Center
Thu 02:06:53 AM 40.2422 -99.0547 67° East 473 544 35,000  Level Minneapolis Center
Thu 02:07:53 AM 40.2897 -98.8981 68° East 470 541 35,000  Level Minneapolis Center
Thu 02:08:53 AM 40.3392 -98.7386 68° East 470 541 35,000  Level Minneapolis Center
Thu 02:09:53 AM 40.3867 -98.5786 69° East 470 541 35,000  Level Minneapolis Center
Thu 02:10:54 AM 40.4342 -98.4178 69° East 471 542 35,000  Level Minneapolis Center
Thu 02:11:54 AM 40.4833 -98.2575 68° East 472 543 35,000  Level Minneapolis Center
Thu 02:12:54 AM 40.5411 -98.0636 69° East 473 544 35,000  Level Minneapolis Center
Thu 02:13:54 AM 40.5892 -97.9036 68° East 473 544 35,000  Level Minneapolis Center
Thu 02:14:55 AM 40.6367 -97.7419 69° East 473 544 35,000  Level Minneapolis Center
Thu 02:15:55 AM 40.6839 -97.5794 69° East 474 545 35,000  Level Minneapolis Center
Thu 02:16:55 AM 40.7306 -97.4169 69° East 474 545 35,000  Level Minneapolis Center
Thu 02:17:55 AM 40.7717 -97.2731 69° East 475 547 35,000  Level Minneapolis Center
Thu 02:18:56 AM 40.8192 -97.1094 69° East 476 548 35,000  Level Minneapolis Center
Thu 02:19:56 AM 40.8667 -96.9433 69° East 479 551 35,000  Level Minneapolis Center
Thu 02:20:56 AM 40.9144 -96.7750 69° East 486 559 35,000  Level Minneapolis Center
Thu 02:21:56 AM 40.9453 -96.5975 77° East 493 567 35,000  Level Minneapolis Center
Thu 02:22:57 AM 40.9678 -96.4164 81° East 498 573 35,000  Level Minneapolis Center
Thu 02:23:57 AM 40.9922 -96.2378 80° East 498 573 35,000  Level Minneapolis Center
Thu 02:24:57 AM 41.0172 -96.0614 79° East 498 573 35,000  Level Minneapolis Center
Thu 02:25:57 AM 41.0400 -95.8853 80° East 496 571 35,000  Level Minneapolis Center
Thu 02:26:58 AM 41.0675 -95.6722 80° East 496 571 35,000  Level Minneapolis Center
Thu 02:27:58 AM 41.0906 -95.4922 80° East 496 571 35,000  Level Minneapolis Center
Thu 02:28:58 AM 41.1139 -95.3131 80° East 496 571 35,000  Level Minneapolis Center
Thu 02:29:58 AM 41.1361 -95.1347 81° East 496 571 35,000  Level Minneapolis Center
Thu 02:30:35 AM 41.1514 -95.0119 81° East 500 575 35,000  Level FlightAware ADS-B (LPVM)
Thu 02:31:38 AM 41.1692 -94.8611 81° East 492 566 35,000  Level Chicago Center
Thu 02:37:52 AM 41.3052 -93.7039 82° East 510 587 35,000  Level FlightAware ADS-B
Thu 02:40:00 AM 41.3502 -93.2931 82° East 509 586 35,000  Level FlightAware ADS-B (YPAD / ADL)
Thu 02:41:20 AM 41.3767 -93.0464 82° East 514 592 35,000  Level FlightAware ADS-B (YPAD / ADL)
Thu 02:41:58 AM 41.3887 -92.9335 82° East 517 595 35,000 80 Level FlightAware ADS-B (YPAD / ADL)
Thu 02:42:35 AM 41.4011 -92.8142 82° East 517 595 35,100 82 Climbing FlightAware ADS-B (YPAD / ADL)
Thu 02:43:11 AM 41.4123 -92.7051 82° East 515 593 35,100 -81 Level FlightAware ADS-B (LPVM)
Thu 02:43:49 AM 41.4252 -92.5776 82° East 513 590 35,000 -73 Descending FlightAware ADS-B (YPAD / ADL)
Thu 02:44:33 AM 41.4392 -92.4390 82° East 512 589 35,000  Level FlightAware ADS-B (LPVM)
Thu 02:44:47 AM 41.4395 -92.4358 83° East 511 588 35,000  Level FlightAware ADS-B (LPVM)
Thu 02:45:17 AM 41.4526 -92.3048 83° East 511 588 35,000  Level FlightAware ADS-B (YPAD / ADL)
Thu 02:45:53 AM 41.4638 -92.1909 83° East 512 589 35,000  Level FlightAware ADS-B (LPVM)
Thu 02:46:34 AM 41.4764 -92.0627 83° East 514 592 35,000  Level FlightAware ADS-B (LPVM)
Thu 02:47:09 AM 41.4818 -92.0065 83° East 515 593 35,000  Level FlightAware ADS-B (LPVM)
Thu 02:48:00 AM 41.4818 -92.0065 83° East 517 595 35,000  Level FlightAware ADS-B (LPVM)
Thu 02:48:40 AM 41.5027 -91.7887 83° East 518 596 35,000  Level FlightAware ADS-B (YPAD / ADL)
Thu 02:49:40 AM 41.5220 -91.4911 89° East 525 604 35,000  Level FlightAware ADS-B (YPAD / ADL)
Thu 02:50:19 AM 41.5248 -91.3463 89° East 526 605 35,000  Level FlightAware ADS-B (YPAD / ADL)
Thu 02:50:58 AM 41.5272 -91.2209 89° East 530 610 35,000  Level FlightAware ADS-B (YPAD / ADL)
Thu 02:51:38 AM 41.5297 -91.0885 89° East 532 612 35,000  Level FlightAware ADS-B (YPAD / ADL)
Thu 02:52:19 AM 41.5313 -90.9968 89° East 534 615 35,000  Level FlightAware ADS-B (YPAD / ADL)
Thu 02:55:54 AM 41.5418 -90.2377 89° East 546 628 35,000  Level FlightAware ADS-B
Thu 02:56:24 AM 41.5428 -90.1366 89° East 547 629 35,000  Level FlightAware ADS-B
Thu 02:56:56 AM 41.5438 -90.0311 89° East 547 629 35,000  Level FlightAware ADS-B
Thu 02:57:36 AM 41.5451 -89.8945 89° East 547 629 35,000  Level FlightAware ADS-B
Thu 02:58:15 AM 41.5458 -89.7824 90° East 548 631 35,000  Level FlightAware ADS-B
Thu 02:58:46 AM 41.5467 -89.6585 90° East 550 633 35,000  Level FlightAware ADS-B
Thu 02:59:16 AM 41.5472 -89.5573 90° East 551 634 35,000  Level FlightAware ADS-B
Thu 02:59:46 AM 41.5476 -89.4573 90° East 553 636 35,000  Level FlightAware ADS-B
Thu 03:00:16 AM 41.5481 -89.3526 90° East 555 639 35,000  Level FlightAware ADS-B
Thu 03:00:46 AM 41.5483 -89.2498 90° East 556 640 35,000  Level FlightAware ADS-B
Thu 03:01:16 AM 41.5484 -89.1469 90° East 556 640 35,000 90 Level FlightAware ADS-B
Thu 03:01:53 AM 41.5486 -89.0478 90° East 555 639 35,100  Climbing FlightAware ADS-B
Thu 03:02:26 AM 41.5486 -88.9164 90° East 555 639 35,000 -95 Descending FlightAware ADS-B
Thu 03:02:56 AM 41.5482 -88.8082 90° East 553 636 35,000 100 Level FlightAware ADS-B
Thu 03:03:26 AM 41.5479 -88.7055 90° East 550 633 35,100  Climbing FlightAware ADS-B
Thu 03:03:56 AM 41.5474 -88.6054 90° East 548 631 35,000 -100 Descending FlightAware ADS-B
Thu 03:04:26 AM 41.5471 -88.5042 90° East 547 629 35,000  Level FlightAware ADS-B
Thu 03:05:04 AM 41.5470 -88.3743 89° East 545 627 35,000  Level FlightAware ADS-B
Thu 03:05:36 AM 41.5527 -88.2700 83° East 539 620 35,000  Level FlightAware ADS-B
Thu 03:06:06 AM 41.5638 -88.1726 81° East 536 617 35,000  Level FlightAware ADS-B
Thu 03:06:36 AM 41.5758 -88.0717 81° East 536 617 35,000  Level FlightAware ADS-B
Thu 03:07:16 AM 41.5906 -87.9471 81° East 538 619 35,000  Level FlightAware ADS-B
Thu 03:07:46 AM 41.6019 -87.8497 81° East 539 620 35,000  Level FlightAware ADS-B
Thu 03:08:25 AM 41.6172 -87.7169 81° East 541 623 35,000  Level FlightAware ADS-B
Thu 03:08:55 AM 41.6284 -87.6182 82° East 544 626 35,000  Level FlightAware ADS-B
Thu 03:09:26 AM 41.6403 -87.5120 81° East 545 627 35,000 98 Level FlightAware ADS-B
Thu 03:09:56 AM 41.6512 -87.4148 82° East 546 628 35,100  Climbing FlightAware ADS-B
Thu 03:10:26 AM 41.6623 -87.3152 82° East 546 628 35,000 -100 Descending FlightAware ADS-B
Thu 03:10:56 AM 41.6738 -87.2132 82° East 546 628 35,000  Level FlightAware ADS-B
Thu 03:11:26 AM 41.6846 -87.1151 82° East 545 627 35,000  Level FlightAware ADS-B
Thu 03:11:56 AM 41.6957 -87.0131 82° East 544 626 35,000  Level FlightAware ADS-B
Thu 03:12:26 AM 41.7062 -86.9141 82° East 542 624 35,000  Level FlightAware ADS-B
Thu 03:12:56 AM 41.7165 -86.8170 82° East 543 625 35,000  Level FlightAware ADS-B
Thu 03:13:27 AM 41.7275 -86.7130 82° East 542 624 35,000  Level FlightAware ADS-B
Thu 03:13:57 AM 41.7377 -86.6162 82° East 543 625 35,000  Level FlightAware ADS-B
Thu 03:14:27 AM 41.7485 -86.5119 82° East 544 626 35,000  Level FlightAware ADS-B
Thu 03:14:57 AM 41.7585 -86.4152 82° East 546 628 35,000  Level FlightAware ADS-B
Thu 03:15:27 AM 41.7686 -86.3175 82° East 547 629 35,000  Level FlightAware ADS-B
Thu 03:15:57 AM 41.7794 -86.2155 82° East 548 631 35,000  Level FlightAware ADS-B
Thu 03:16:37 AM 41.7930 -86.0874 82° East 549 632 35,000  Level FlightAware ADS-B
Thu 03:17:08 AM 41.8044 -85.9740 83° East 549 632 35,000  Level FlightAware ADS-B
Thu 03:17:44 AM 41.8168 -85.8516 82° East 548 631 35,000  Level FlightAware ADS-B
Thu 03:18:18 AM 41.8277 -85.7419 82° East 548 631 35,000  Level FlightAware ADS-B
Thu 03:18:48 AM 41.8377 -85.6396 83° East 547 629 35,000  Level FlightAware ADS-B
Thu 03:19:18 AM 41.8479 -85.5369 83° East 546 628 35,000  Level FlightAware ADS-B
Thu 03:19:48 AM 41.8575 -85.4378 83° East 544 626 35,000  Level FlightAware ADS-B
Thu 03:20:18 AM 41.8674 -85.3369 83° East 543 625 35,000  Level FlightAware ADS-B
Thu 03:20:48 AM 41.8769 -85.2383 83° East 542 624 35,000  Level FlightAware ADS-B
Thu 03:21:18 AM 41.8864 -85.1405 82° East 541 623 35,000  Level FlightAware ADS-B
Thu 03:21:49 AM 41.8974 -85.0373 82° East 540 621 35,000  Level FlightAware ADS-B
Thu 03:22:19 AM 41.9077 -84.9364 82° East 538 619 35,000  Level FlightAware ADS-B
Thu 03:22:49 AM 41.9173 -84.8429 82° East 537 618 35,000  Level FlightAware ADS-B
Thu 03:23:19 AM 41.9279 -84.7382 82° East 536 617 35,000  Level FlightAware ADS-B
Thu 03:23:49 AM 41.9377 -84.6387 83° East 535 616 35,000  Level FlightAware ADS-B
Thu 03:24:19 AM 41.9469 -84.5427 83° East 534 615 35,000  Level FlightAware ADS-B
Thu 03:24:49 AM 41.9566 -84.4434 83° East 534 615 35,000  Level FlightAware ADS-B
Thu 03:25:19 AM 41.9663 -84.3432 83° East 534 615 35,000  Level FlightAware ADS-B
Thu 03:26:09 AM 41.9818 -84.1813 83° East 534 615 35,000  Level FlightAware ADS-B
Thu 03:26:40 AM 41.9914 -84.0790 83° East 535 616 35,000  Level FlightAware ADS-B
Thu 03:27:20 AM 42.0033 -83.9517 83° East 536 617 35,000  Level FlightAware ADS-B
Thu 03:27:50 AM 42.0129 -83.8480 83° East 538 619 35,000  Level FlightAware ADS-B
Thu 03:31:38 AM 42.0664 -83.0875 86° East 542 624 35,000  Level FlightAware ADS-B (CYYZ)
Thu 03:32:09 AM 42.0713 -82.9846 86° East 542 624 35,000  Level FlightAware ADS-B (CYYZ)
Thu 03:32:39 AM 42.0761 -82.8845 86° East 542 624 35,000  Level FlightAware ADS-B (CYYZ)
Thu 03:33:08 AM 42.0808 -82.7843 86° East 543 625 35,000  Level FlightAware ADS-B (CYYZ)
Thu 03:33:38 AM 42.0851 -82.6869 86° East 542 624 35,000  Level FlightAware ADS-B (CYYZ)
Thu 03:33:47 AM 42.0858 -82.6704 87° East 541 623 35,000  Level FlightAware ADS-B (EPLB / LUZ)
Thu 03:34:10 AM 42.0898 -82.5796 86° East 542 624 35,000  Level FlightAware ADS-B (CYYZ)
Thu 03:34:26 AM 42.0915 -82.5402 87° East 543 625 35,000  Level FlightAware ADS-B (EPLB / LUZ)
Thu 03:34:38 AM 42.0939 -82.4834 86° East 544 626 35,000  Level FlightAware ADS-B (CYYZ)
Thu 03:35:08 AM 42.0983 -82.3836 86° East 543 625 35,000  Level FlightAware ADS-B (CYYZ)
Thu 03:35:13 AM 42.0990 -82.3671 87° East 544 626 35,000  Level FlightAware ADS-B (EPLB / LUZ)
Thu 03:35:39 AM 42.1026 -82.2779 86° East 545 627 35,000  Level FlightAware ADS-B (CYYZ)
Thu 03:35:54 AM 42.1046 -82.2274 87° East 545 627 35,000  Level FlightAware ADS-B (EPLB / LUZ)
Thu 03:36:09 AM 42.1067 -82.1768 86° East 546 628 35,000  Level FlightAware ADS-B (CYYZ)
Thu 03:36:39 AM 42.1107 -82.0771 86° East 547 629 35,000  Level FlightAware ADS-B (CYYZ)
Thu 03:36:55 AM 42.1126 -82.0265 87° East 546 628 35,000  Level FlightAware ADS-B (EPLB / LUZ)
Thu 03:37:08 AM 42.1145 -81.9767 87° East 546 628 35,000  Level FlightAware ADS-B (CYYZ)
Thu 03:37:39 AM 42.1182 -81.8720 87° East 546 628 35,000  Level FlightAware ADS-B (CYYZ)
Thu 03:38:09 AM 42.1219 -81.7715 87° East 547 629 35,000  Level FlightAware ADS-B (CYYZ)
Thu 03:38:38 AM 42.1257 -81.6711 86° East 547 629 35,000  Level FlightAware ADS-B (CYYZ)
Thu 03:39:09 AM 42.1295 -81.5684 87° East 547 629 35,000  Level FlightAware ADS-B (CYYZ)
Thu 03:39:39 AM 42.1331 -81.4642 87° East 548 631 35,000  Level FlightAware ADS-B (CYYZ)
Thu 03:40:09 AM 42.1364 -81.3634 87° East 548 631 35,000  Level FlightAware ADS-B (CYYZ)
Thu 03:40:39 AM 42.1397 -81.2613 87° East 548 631 35,000  Level FlightAware ADS-B (CYYZ)
Thu 03:41:09 AM 42.1430 -81.1603 87° East 549 632 35,000  Level FlightAware ADS-B (CYYZ)
Thu 03:41:33 AM 42.1456 -81.0790 88° East 550 633 35,000  Level FlightAware ADS-B (EPLB / LUZ)
Thu 03:41:39 AM 42.1463 -81.0585 87° East 550 633 35,000  Level FlightAware ADS-B (CYYZ)
Thu 03:42:08 AM 42.1493 -80.9581 87° East 550 633 35,000  Level FlightAware ADS-B (CYYZ)
Thu 03:42:14 AM 42.1495 -80.9524 88° East 549 632 35,000  Level FlightAware ADS-B (EPLB / LUZ)
Thu 03:42:39 AM 42.1524 -80.8541 87° East 551 634 35,000  Level FlightAware ADS-B (CYYZ)
Thu 03:42:46 AM 42.1531 -80.8300 88° East 550 633 35,000  Level FlightAware ADS-B (EPLB / LUZ)
Thu 03:43:09 AM 42.1531 -80.8263 87° East 551 634 35,000  Level FlightAware ADS-B (CYYZ)
Thu 03:43:26 AM 42.1568 -80.6913 88° East 551 634 35,000  Level FlightAware ADS-B (EPLB / LUZ)
Thu 03:44:09 AM 42.1607 -80.5469 88° East 551 634 35,000  Level FlightAware ADS-B (CYYZ)
Thu 03:44:11 AM 42.1608 -80.5403 88° East 550 633 35,000  Level FlightAware ADS-B (EPLB / LUZ)
Thu 03:44:39 AM 42.1632 -80.4421 88° East 549 632 35,000  Level FlightAware ADS-B (CYYZ)
Thu 03:44:50 AM 42.1633 -80.4355 88° East 548 631 35,000  Level FlightAware ADS-B (EPLB / LUZ)
Thu 03:45:09 AM 42.1657 -80.3397 88° East 548 631 35,000  Level FlightAware ADS-B (CYYZ)
Thu 03:45:21 AM 42.1666 -80.2991 88° East 547 629 35,000  Level FlightAware ADS-B (EPLB / LUZ)
Thu 03:45:40 AM 42.1681 -80.2368 88° East 547 629 35,000  Level FlightAware ADS-B (CYYZ)
Thu 03:46:01 AM 42.1694 -80.1796 88° East 545 627 35,000  Level FlightAware ADS-B (EPLB / LUZ)
Thu 03:46:09 AM 42.1705 -80.1354 88° East 546 628 35,000  Level FlightAware ADS-B (CYYZ)
Thu 03:46:32 AM 42.1706 -80.1283 88° East 544 626 35,000  Level FlightAware ADS-B (EPLB / LUZ)
Thu 03:46:39 AM 42.1727 -80.0345 88° East 545 627 35,000  Level FlightAware ADS-B (CYYZ)
Thu 03:47:09 AM 42.1741 -79.9333 92° East 546 628 35,000  Level FlightAware ADS-B (CYYZ)
Thu 03:47:36 AM 42.1740 -79.9738 103° East 543 625 35,000  Level FlightAware ADS-B (EPLB / LUZ)
Thu 03:47:59 AM 42.1508 -79.7678 102° East 542 624 35,000  Level FlightAware ADS-B (CYYZ)
Thu 03:48:29 AM 42.1339 -79.6677 102° East 540 621 35,000  Level FlightAware ADS-B (CYYZ)
Thu 03:48:38 AM 42.1301 -79.6449 103° East 539 620 35,000  Level FlightAware ADS-B (EPLB / LUZ)
Thu 03:48:59 AM 42.1177 -79.5716 102° East 539 620 35,000  Level FlightAware ADS-B (CYYZ)
Thu 03:49:18 AM 42.1073 -79.5099 103° East 537 618 35,000  Level FlightAware ADS-B (EPLB / LUZ)
Thu 03:49:29 AM 42.1013 -79.4745 103° East 537 618 35,000  Level FlightAware ADS-B (CYYZ)
Thu 03:49:57 AM 42.0857 -79.3838 103° East 536 617 35,000  Level FlightAware ADS-B (EPLB / LUZ)
Thu 03:49:59 AM 42.0845 -79.3770 103° East 535 616 35,000  Level FlightAware ADS-B (CYYZ)
Thu 03:50:29 AM 42.0681 -79.2809 103° East 536 617 35,000  Level FlightAware ADS-B (CYYZ)
Thu 03:50:54 AM 42.0537 -79.1974 103° East 536 617 35,000  Level FlightAware ADS-B (EPLB / LUZ)
Thu 03:50:59 AM 42.0511 -79.1822 103° East 536 617 35,000  Level FlightAware ADS-B (CYYZ)
Thu 03:51:29 AM 42.0340 -79.0843 103° East 536 617 35,000  Level FlightAware ADS-B (CYYZ)
Thu 03:51:35 AM 42.0310 -79.0670 103° East 535 616 35,000  Level FlightAware ADS-B (EPLB / LUZ)
Thu 03:51:59 AM 42.0175 -78.9899 103° East 536 617 35,000  Level FlightAware ADS-B (CYYZ)
Thu 03:52:29 AM 42.0005 -78.8936 103° East 534 615 35,000  Level FlightAware ADS-B (CYYZ)
Thu 03:52:59 AM 41.9834 -78.7963 103° East 533 613 35,000  Level FlightAware ADS-B (CYYZ)
Thu 03:53:29 AM 41.9665 -78.7011 103° East 533 613 35,000  Level FlightAware ADS-B (CYYZ)
Thu 03:53:59 AM 41.9491 -78.6033 103° East 533 613 35,000  Level FlightAware ADS-B (CYYZ)
Thu 03:54:29 AM 41.9321 -78.5088 103° East 535 616 35,000  Level FlightAware ADS-B (CYYZ)
Thu 03:54:59 AM 41.9148 -78.4129 103° East 535 616 35,000  Level FlightAware ADS-B (CYYZ)
Thu 03:55:29 AM 41.8970 -78.3148 103° East 535 616 35,000  Level FlightAware ADS-B (CYYZ)
Thu 03:55:59 AM 41.8796 -78.2189 103° East 536 617 35,000  Level FlightAware ADS-B (CYYZ)
Thu 03:56:29 AM 41.8616 -78.1207 103° East 537 618 35,000  Level FlightAware ADS-B (CYYZ)
Thu 03:57:00 AM 41.8435 -78.0225 103° East 536 617 35,000 100 Level FlightAware ADS-B (CYYZ)
Thu 03:57:29 AM 41.8260 -77.9281 104° East 535 616 35,100  Climbing FlightAware ADS-B (CYYZ)
Thu 03:57:55 AM 41.8111 -77.8482 104° East 534 615 35,000 -111 Descending FlightAware ADS-B (CYYZ)
Thu 03:58:23 AM 41.7959 -77.7664 104° East 532 612 35,000  Level FlightAware ADS-B (CYYZ)
Thu 03:59:50 AM 41.7414 -77.4785 104° East 531 611 35,000  Level FlightAware ADS-B (CYYZ)
Thu 04:02:14 AM 41.6444 -77.0261 109° East 528 608 35,000  Level FlightAware ADS-B (CYYZ)
Thu 04:02:44 AM 41.6207 -76.9380 109° East 529 609 35,000  Level FlightAware ADS-B (CYYZ)
Thu 04:02:59 AM 41.6092 -76.8955 109° East 529 609 35,000  Level FlightAware ADS-B (CYYZ)
Thu 04:03:44 AM 41.5707 -76.7533 110° East 532 612 35,000  Level FlightAware ADS-B (CYYZ)
Thu 04:04:02 AM 41.5798 -76.7868 110° East 531 611 35,000  Level FlightAware ADS-B (EPGD / GDN)
Thu 04:04:13 AM 41.5455 -76.6615 110° East 533 613 35,000  Level FlightAware ADS-B (CYYZ)
Thu 04:04:22 AM 41.5396 -76.6399 110° East 533 613 35,000  Level FlightAware ADS-B (CYYZ)
Thu 04:05:31 AM 41.5067 -76.5211 110° East 530 610 35,000 -86 Level FlightAware ADS-B (EPGD / GDN)
Thu 04:06:41 AM 41.4203 -76.2433 110° East 517 595 34,800 -785 Descending New York Center
Thu 04:07:41 AM 41.3747 -76.0542 108° East 523 602 33,300 -2,250 Descending New York Center
Thu 04:08:41 AM 41.3244 -75.8708 110° East 523 602 30,300 -1,635 Descending New York Center
Thu 04:13:59 AM 41.1085 -75.1985 112° Southeast 488 562 23,000 -1,058 Descending FlightAware ADS-B (KSNC)
Thu 04:15:35 AM 40.9846 -74.7651 98° East 497 572 23,000 -39 Level FlightAware ADS-B
Thu 04:16:32 AM 40.9552 -74.4930 98° East 497 572 22,900 -742 Descending FlightAware ADS-B
Thu 04:17:12 AM 40.9419 -74.3728 98° East 490 564 21,800 -1,895 Descending FlightAware ADS-B (KSNC)
Thu 04:17:48 AM 40.9303 -74.2693 98° East 485 558 20,500 -1,884 Descending FlightAware ADS-B (KSNC)
Thu 04:18:38 AM 40.8838 -74.1463 120° Southeast 456 525 19,100 -1,216 Descending FlightAware ADS-B
Thu 04:19:02 AM 40.8492 -74.1138 145° Southeast 413 475 19,000 -203 Descending FlightAware ADS-B (KSNC)
Thu 04:19:37 AM 40.7913 -74.0609 145° Southeast 412 474 18,900 -1,500 Descending FlightAware ADS-B
Thu 04:20:34 AM 40.7026 -73.9807 146° Southeast 401 461 16,700 -2,298 Descending FlightAware ADS-B (KSNC)
Thu 04:21:11 AM 40.6477 -73.9318 146° Southeast 379 436 15,300 -2,348 Descending FlightAware ADS-B (KSNC)
Thu 04:21:43 AM 40.6098 -73.8975 145° Southeast 372 428 14,000 -2,710 Descending FlightAware ADS-B (KSNC)
Thu 04:22:13 AM 40.5592 -73.8515 146° Southeast 369 425 12,500 -2,400 Descending FlightAware ADS-B (KSNC)
Thu 04:22:58 AM 40.4985 -73.7958 135° Southeast 351 404 11,000 -1,925 Descending FlightAware ADS-B
Thu 04:23:06 AM 40.4916 -73.7839 121° Southeast 347 399 10,800 -1,358 Descending FlightAware ADS-B (KSNC)
Thu 04:23:51 AM 40.4579 -73.7065 119° Southeast 311 358 9,800 -1,701 Descending FlightAware ADS-B (KSNC)
Thu 04:24:13 AM 40.4416 -73.6676 115° Southeast 310 357 8,900 -2,182 Descending FlightAware ADS-B (KSNC)
Thu 04:24:35 AM 40.4381 -73.6268 81° East 314 361 8,200 -2,029 Descending FlightAware ADS-B (KSNC)
Thu 04:25:21 AM 40.4730 -73.5568 48° Northeast 294 338 6,600 -1,846 Descending FlightAware ADS-B (KSNC)
Thu 04:25:40 AM 40.4926 -73.5374 27° Northeast 273 314 6,200 -1,125 Descending FlightAware ADS-B (KSNC)
Thu 04:25:53 AM 40.5077 -73.5334 North 248 285 6,000 -947 Descending FlightAware ADS-B (KSNC)
Thu 04:25:59 AM 40.5141 -73.5337 355° North 241 277 5,900 -900 Descending FlightAware ADS-B (KSNC)
Thu 04:26:13 AM 40.5284 -73.5388 336° Northwest 224 258 5,700 -1,647 Descending FlightAware ADS-B (KSNC)
Thu 04:26:50 AM 40.5500 -73.5667 336° Northwest 205 236 4,500 -1,748 Descending New York TRACON
Thu 04:27:56 AM 40.5833 -73.6333 303° West 178 205 2,700 -1,350 Descending New York TRACON
Thu 04:28:50 AM 40.6000 -73.6667 303° West 154 177 1,800 -941 Descending New York TRACON
Thu 04:29:38 AM 40.6167 -73.7000 303° West 147 169 1,100 6,035 Descending New York TRACON
Thu 04:31:41 AM 40.6603 -73.8050 299° West 160 184 19,000 8,732 Climbing New York Center

Login

Don't have an account? Register now (free) for customized features, flight alerts, and more!